createdAt,value
2018-03-24T00:02:14.131Z,1.57
2018-03-24T00:04:44.321Z,1.55
2018-03-24T00:07:12.741Z,1.69
2018-03-24T00:09:41.226Z,1.75
2018-03-24T00:12:09.674Z,1.79
2018-03-24T00:14:38.138Z,1.76
2018-03-24T00:17:08.413Z,1.72
2018-03-24T00:19:38.548Z,1.74
2018-03-24T00:22:06.991Z,1.65
2018-03-24T00:24:35.468Z,1.50
2018-03-24T00:27:03.936Z,1.51
2018-03-24T00:29:33.306Z,1.39
2018-03-24T00:32:01.754Z,1.30
2018-03-24T00:34:30.245Z,1.27
2018-03-24T00:36:58.647Z,1.16
2018-03-24T00:39:28.625Z,1.16
2018-03-24T00:41:57.093Z,1.30
2018-03-24T00:44:25.565Z,1.14
2018-03-24T00:46:55.519Z,1.15
2018-03-24T00:49:23.966Z,1.22
2018-03-24T00:51:53.993Z,1.26
2018-03-24T00:54:26.190Z,1.38
2018-03-24T00:56:56.785Z,1.40
2018-03-24T00:59:25.293Z,1.52
2018-03-24T01:01:53.740Z,1.49
2018-03-24T01:04:22.206Z,1.64
2018-03-24T01:06:50.669Z,1.67
2018-03-24T01:09:19.137Z,1.71
2018-03-24T01:11:48.221Z,1.68
2018-03-24T01:14:16.612Z,1.66
2018-03-24T01:16:49.060Z,1.61
2018-03-24T01:19:17.548Z,1.65
2018-03-24T01:21:45.998Z,1.69
2018-03-24T01:24:17.517Z,1.73
2018-03-24T01:26:46.034Z,1.66
2018-03-24T01:29:16.145Z,1.68
2018-03-24T01:31:44.610Z,1.68
2018-03-24T01:34:13.021Z,1.70
2018-03-24T01:36:41.513Z,1.64
2018-03-24T01:39:09.892Z,1.65
2018-03-24T01:41:38.849Z,1.56
2018-03-24T01:44:09.489Z,1.52
2018-03-24T01:46:40.091Z,1.73
2018-03-24T01:49:10.679Z,1.73
2018-03-24T01:51:40.662Z,1.69
2018-03-24T01:54:09.119Z,1.77
2018-03-24T01:56:39.848Z,1.80
2018-03-24T01:59:08.847Z,1.72
2018-03-24T02:01:37.267Z,1.81
2018-03-24T02:04:05.686Z,1.72
2018-03-24T02:06:37.678Z,1.76
2018-03-24T02:09:06.244Z,1.80
2018-03-24T02:11:34.781Z,1.64
2018-03-24T02:14:03.260Z,1.70
2018-03-24T02:16:31.705Z,1.85
2018-03-24T02:19:01.709Z,1.87
2018-03-24T02:21:36.273Z,1.72
2018-03-24T02:24:04.747Z,1.72
2018-03-24T02:26:34.999Z,1.73
2018-03-24T02:29:03.653Z,1.77
2018-03-24T02:31:34.071Z,1.77
2018-03-24T02:34:02.541Z,1.65
2018-03-24T02:36:32.946Z,1.70
2018-03-24T02:39:03.823Z,1.74
2018-03-24T02:41:32.262Z,1.59
2018-03-24T02:44:00.777Z,1.60
2018-03-24T02:46:31.856Z,1.52
2018-03-24T02:49:00.286Z,1.47
2018-03-24T02:51:28.728Z,1.40
2018-03-24T02:54:03.143Z,1.30
2018-03-24T02:56:35.812Z,1.36
2018-03-24T02:59:08.342Z,1.16
2018-03-24T03:01:36.990Z,1.43
2018-03-24T03:04:05.469Z,1.20
2018-03-24T03:06:33.894Z,1.39
2018-03-24T03:09:02.299Z,1.42
2018-03-24T03:11:35.101Z,1.36
2018-03-24T03:14:09.289Z,1.23
2018-03-24T03:16:37.757Z,1.26
2018-03-24T03:19:08.230Z,1.13
2018-03-24T03:21:48.905Z,1.15
2018-03-24T03:24:17.340Z,1.19
2018-03-24T03:26:45.797Z,1.01
2018-03-24T03:29:14.213Z,0.95
2018-03-24T03:31:50.690Z,0.85
2018-03-24T03:34:19.074Z,0.79
2018-03-24T03:36:51.863Z,0.73
2018-03-24T03:39:20.309Z,0.62
2018-03-24T03:41:50.434Z,0.92
2018-03-24T03:44:18.844Z,0.69
2018-03-24T03:46:47.301Z,0.58
2018-03-24T03:49:15.683Z,0.62
2018-03-24T03:51:44.303Z,0.52
2018-03-24T03:54:15.350Z,0.55
2018-03-24T03:56:43.826Z,0.64
2018-03-24T03:59:13.068Z,0.51
2018-03-24T04:01:41.484Z,0.53
2018-03-24T04:04:09.919Z,0.47
2018-03-24T04:06:39.863Z,0.52
2018-03-24T04:09:09.861Z,0.46
2018-03-24T04:11:38.286Z,0.41
2018-03-24T04:14:06.709Z,0.44
2018-03-24T04:16:35.117Z,0.49
2018-03-24T04:19:03.693Z,0.47
2018-03-24T04:21:32.096Z,0.32
2018-03-24T04:24:00.506Z,0.28
2018-03-24T04:26:28.984Z,0.29
2018-03-24T04:29:00.125Z,0.21
2018-03-24T04:31:30.358Z,0.22
2018-03-24T04:34:00.309Z,0.16
2018-03-24T04:36:28.746Z,0.15
2018-03-24T04:38:58.828Z,0.24
2018-03-24T04:41:27.579Z,0.16
2018-03-24T04:43:58.018Z,0.18
2018-03-24T04:46:40.099Z,0.20
2018-03-24T04:49:10.748Z,0.22
2018-03-24T04:51:39.171Z,0.07
2018-03-24T04:54:07.586Z,0.31
2018-03-24T04:56:37.936Z,0.16
2018-03-24T04:59:07.198Z,0.13
2018-03-24T05:01:35.617Z,0.26
2018-03-24T05:04:06.029Z,0.07
2018-03-24T05:06:34.441Z,0.08
2018-03-24T05:09:06.437Z,0.14
2018-03-24T05:11:36.961Z,0.03
2018-03-24T05:14:05.493Z,0.07
2018-03-24T05:16:33.961Z,0.03
2018-03-24T05:19:05.431Z,0.00
2018-03-24T05:21:33.833Z,-0.03
2018-03-24T05:24:02.315Z,-0.04
2018-03-24T05:26:30.743Z,-0.06
2018-03-24T05:28:59.276Z,0.00
2018-03-24T05:31:29.979Z,-0.01
2018-03-24T05:33:58.408Z,-0.02
2018-03-24T05:36:26.789Z,-0.08
2018-03-24T05:39:00.773Z,0.02
2018-03-24T05:41:34.709Z,0.16
2018-03-24T05:44:03.145Z,-0.10
2018-03-24T05:46:37.681Z,-0.28
2018-03-24T05:49:06.094Z,-0.34
2018-03-24T05:51:36.239Z,-0.24
2018-03-24T05:54:04.668Z,0.10
2018-03-24T05:56:35.117Z,0.38
2018-03-24T05:59:03.609Z,0.77
2018-03-24T06:01:32.025Z,1.19
2018-03-24T06:04:00.447Z,1.48
2018-03-24T06:06:28.851Z,1.77
2018-03-24T06:08:57.305Z,2.12
2018-03-24T06:11:26.039Z,2.37
2018-03-24T06:13:55.974Z,2.64
2018-03-24T06:16:25.872Z,2.85
2018-03-24T06:18:55.704Z,2.92
2018-03-24T06:21:24.142Z,3.29
2018-03-24T06:23:51.536Z,3.50
2018-03-24T06:26:21.483Z,3.70
2018-03-24T06:28:49.987Z,4.00
2018-03-24T06:31:21.459Z,4.39
2018-03-24T06:33:51.352Z,4.56
2018-03-24T06:36:19.822Z,4.85
2018-03-24T06:38:48.342Z,5.11
2018-03-24T06:41:16.866Z,5.41
2018-03-24T06:43:47.411Z,5.76
2018-03-24T06:46:15.842Z,5.79
2018-03-24T06:48:44.321Z,5.82
2018-03-24T06:51:12.741Z,6.00
2018-03-24T06:53:41.166Z,6.11
2018-03-24T06:56:09.606Z,6.42
2018-03-24T06:58:36.968Z,6.21
2018-03-24T07:01:05.413Z,6.36
2018-03-24T07:03:33.858Z,6.48
2018-03-24T07:06:02.271Z,6.56
2018-03-24T07:08:30.738Z,6.41
2018-03-24T07:10:59.195Z,6.67
2018-03-24T07:13:27.640Z,6.87
2018-03-24T07:15:56.104Z,7.03
2018-03-24T07:18:23.451Z,7.25
2018-03-24T07:20:55.462Z,7.65
2018-03-24T07:23:22.763Z,7.97
2018-03-24T07:25:53.473Z,8.54
2018-03-24T07:28:21.649Z,9.11
2018-03-24T07:30:51.093Z,9.68
2018-03-24T07:33:18.482Z,10.17
2018-03-24T07:35:48.251Z,10.83
2018-03-24T07:38:15.631Z,11.36
2018-03-24T07:40:46.689Z,11.92
2018-03-24T07:43:14.028Z,12.82
2018-03-24T07:45:43.773Z,13.28
2018-03-24T07:48:11.227Z,13.51
2018-03-24T07:50:40.771Z,13.59
2018-03-24T07:53:09.098Z,14.18
2018-03-24T07:55:38.617Z,14.51
2018-03-24T07:58:05.933Z,14.64
2018-03-24T08:00:35.668Z,15.53
2018-03-24T08:03:03.750Z,15.63
2018-03-24T08:05:31.115Z,16.56
2018-03-24T08:08:00.948Z,16.86
2018-03-24T08:10:28.275Z,17.57
2018-03-24T08:12:58.026Z,17.59
2018-03-24T08:15:25.347Z,17.52
2018-03-24T08:17:56.099Z,17.27
2018-03-24T08:20:23.430Z,17.28
2018-03-24T08:22:51.446Z,17.40
2018-03-24T08:25:20.910Z,15.29
2018-03-24T08:27:49.408Z,14.00
2018-03-24T08:30:17.835Z,12.45
2018-03-24T08:32:46.305Z,13.32
2018-03-24T08:35:16.086Z,12.46
2018-03-24T08:37:44.514Z,13.62
2018-03-24T08:40:15.160Z,13.52
2018-03-24T08:42:43.838Z,12.29
2018-03-24T08:45:12.289Z,12.01
2018-03-24T08:47:40.739Z,11.50
2018-03-24T08:50:10.465Z,10.70
2018-03-24T08:52:38.924Z,11.66
2018-03-24T08:55:07.364Z,10.90
2018-03-24T08:57:36.852Z,10.84
2018-03-24T09:00:05.285Z,11.18
2018-03-24T09:02:33.703Z,10.43
2018-03-24T09:05:02.190Z,11.24
2018-03-24T09:07:30.643Z,12.88
2018-03-24T09:09:59.289Z,11.37
2018-03-24T09:12:27.778Z,12.84
2018-03-24T09:14:56.228Z,13.08
2018-03-24T09:17:25.125Z,12.99
2018-03-24T09:19:54.950Z,14.23
2018-03-24T09:22:23.365Z,14.45
2018-03-24T09:24:53.131Z,14.16
2018-03-24T09:27:21.557Z,13.27
2018-03-24T09:29:50.012Z,13.21
2018-03-24T09:32:18.493Z,13.52
2018-03-24T09:34:48.239Z,14.28
2018-03-24T09:37:18.190Z,14.74
2018-03-24T09:39:46.617Z,15.32
2018-03-24T09:42:15.076Z,15.52
2018-03-24T09:44:43.530Z,14.74
2018-03-24T09:47:11.943Z,14.05
2018-03-24T09:49:40.312Z,12.97
2018-03-24T09:52:09.833Z,12.88
2018-03-24T09:54:38.302Z,11.67
2018-03-24T09:57:06.813Z,11.73
2018-03-24T09:59:36.252Z,13.19
2018-03-24T10:02:05.686Z,13.81
2018-03-24T10:04:35.137Z,12.42
2018-03-24T10:07:03.527Z,12.91
2018-03-24T10:09:31.961Z,13.60
2018-03-24T10:12:00.342Z,14.52
2018-03-24T10:14:29.929Z,13.78
2018-03-24T10:16:58.355Z,12.68
2018-03-24T10:19:26.805Z,13.12
2018-03-24T10:35:16.980Z,15.05
2018-03-24T10:37:52.419Z,15.78
2018-03-24T10:40:20.938Z,16.12
2018-03-24T10:42:55.570Z,17.13
2018-03-24T10:45:22.904Z,17.85
2018-03-24T10:47:52.337Z,16.06
2018-03-24T10:50:19.694Z,15.81
2018-03-24T10:52:47.002Z,16.57
2018-03-24T10:55:17.438Z,16.32
2018-03-24T10:57:44.785Z,17.19
2018-03-24T11:00:14.296Z,16.70
2018-03-24T11:02:41.640Z,17.56
2018-03-24T11:05:11.129Z,16.97
2018-03-24T11:07:38.522Z,16.67
2018-03-24T11:10:07.989Z,16.34
2018-03-24T11:12:36.836Z,16.35
2018-03-24T11:15:06.446Z,15.66
2018-03-24T11:17:34.869Z,14.18
2018-03-24T11:20:03.271Z,13.11
2018-03-24T11:22:31.727Z,12.00
2018-03-24T11:25:00.113Z,11.01
2018-03-24T11:27:28.553Z,11.13
2018-03-24T11:29:57.937Z,11.09
2018-03-24T11:32:26.354Z,11.44
2018-03-24T11:34:54.792Z,11.83
2018-03-24T11:37:23.234Z,12.11
2018-03-24T11:39:51.653Z,11.89
2018-03-24T11:42:20.119Z,11.54
2018-03-24T11:44:48.537Z,11.62
2018-03-24T11:47:16.953Z,11.57
2018-03-24T11:49:45.401Z,11.70
2018-03-24T11:52:13.884Z,11.56
2018-03-24T11:54:42.419Z,11.69
2018-03-24T11:57:11.902Z,11.38
2018-03-24T11:59:40.337Z,10.89
2018-03-24T12:02:08.924Z,11.18
2018-03-24T12:04:38.344Z,11.56
2018-03-24T12:07:08.439Z,11.72
2018-03-24T12:09:36.877Z,11.42
2018-03-24T12:12:05.322Z,11.35
2018-03-24T12:14:34.433Z,11.34
2018-03-24T12:17:03.838Z,11.21
2018-03-24T12:19:32.225Z,11.14
2018-03-24T12:22:01.828Z,11.15
2018-03-24T12:24:30.277Z,11.25
2018-03-24T12:26:59.798Z,11.33
2018-03-24T12:29:28.230Z,11.37
2018-03-24T12:31:56.705Z,11.51
2018-03-24T12:34:26.152Z,11.12
2018-03-24T12:36:55.578Z,11.18
2018-03-24T12:39:23.984Z,11.27
2018-03-24T12:41:52.385Z,11.09
2018-03-24T12:44:20.819Z,10.72
2018-03-24T12:46:49.372Z,10.57
2018-03-24T12:49:19.737Z,10.70
2018-03-24T12:51:48.167Z,11.06
2018-03-24T12:54:16.578Z,10.97
2018-03-24T12:56:45.281Z,11.07
2018-03-24T12:59:13.729Z,11.21
2018-03-24T13:01:42.152Z,11.39
2018-03-24T13:04:12.741Z,10.83
2018-03-24T13:06:42.297Z,10.88
2018-03-24T13:09:10.713Z,10.89
2018-03-24T13:11:39.828Z,11.18
2018-03-24T13:14:09.273Z,11.10
2018-03-24T13:16:38.813Z,10.96
2018-03-24T13:19:07.228Z,11.11
2018-03-24T13:21:35.666Z,11.20
2018-03-24T13:24:04.116Z,11.38
2018-03-24T13:26:32.539Z,11.29
2018-03-24T13:29:00.941Z,11.33
2018-03-24T13:31:29.381Z,11.15
2018-03-24T13:33:58.177Z,11.22
2018-03-24T13:36:26.650Z,11.28
2018-03-24T13:38:55.058Z,11.45
2018-03-24T13:41:23.443Z,11.37
2018-03-24T13:43:53.270Z,11.17
2018-03-24T13:46:21.677Z,11.28
2018-03-24T13:48:50.093Z,11.17
2018-03-24T13:51:18.547Z,11.14
2018-03-24T13:53:46.965Z,11.46
2018-03-24T13:56:15.415Z,11.19
2018-03-24T13:58:44.190Z,11.26
2018-03-24T14:01:12.607Z,11.06
2018-03-24T14:03:41.071Z,10.87
2018-03-24T14:06:09.842Z,10.90
2018-03-24T14:08:38.301Z,10.81
2018-03-24T14:11:06.806Z,10.85
2018-03-24T14:13:35.221Z,10.72
2018-03-24T14:16:03.708Z,10.56
2018-03-24T14:18:32.145Z,10.76
2018-03-24T14:21:00.625Z,10.70
2018-03-24T14:23:29.072Z,10.57
2018-03-24T14:25:58.557Z,10.66
2018-03-24T14:28:26.936Z,10.69
2018-03-24T14:30:55.373Z,10.79
2018-03-24T14:33:24.836Z,10.82
2018-03-24T14:35:54.262Z,10.84
2018-03-24T14:38:23.866Z,10.78
2018-03-24T14:40:53.393Z,10.71
2018-03-24T14:43:22.981Z,10.53
2018-03-24T14:45:52.368Z,10.69
2018-03-24T14:48:21.835Z,10.57
2018-03-24T14:50:51.249Z,10.63
2018-03-24T14:53:20.745Z,10.64
2018-03-24T14:55:49.184Z,10.74
2018-03-24T14:58:17.679Z,10.87
2018-03-24T15:00:46.128Z,10.77
2018-03-24T15:03:14.560Z,10.54
2018-03-24T15:05:43.006Z,10.37
2018-03-24T15:08:11.465Z,10.29
2018-03-24T15:10:39.896Z,10.31
2018-03-24T15:13:08.325Z,10.52
2018-03-24T15:15:36.726Z,10.41
2018-03-24T15:18:05.253Z,10.31
2018-03-24T15:20:33.764Z,10.48
2018-03-24T15:23:03.396Z,10.54
2018-03-24T15:25:32.840Z,10.64
2018-03-24T15:28:02.262Z,10.40
2018-03-24T15:30:36.933Z,10.54
2018-03-24T15:33:11.245Z,10.33
2018-03-24T15:49:00.698Z,10.22
2018-03-24T15:51:30.134Z,10.13
2018-03-24T15:53:58.601Z,10.17
2018-03-24T15:56:27.426Z,10.33
2018-03-24T15:58:55.950Z,10.28
2018-03-24T16:01:24.450Z,10.15
2018-03-24T16:03:52.946Z,10.06
2018-03-24T16:06:21.408Z,9.93
2018-03-24T16:08:50.879Z,10.10
2018-03-24T16:11:19.329Z,10.08
2018-03-24T16:13:47.746Z,9.96
2018-03-24T16:16:16.158Z,10.14
2018-03-24T16:18:44.559Z,10.07
2018-03-24T16:21:13.006Z,10.14
2018-03-24T16:23:41.493Z,10.17
2018-03-24T16:26:11.114Z,9.98
2018-03-24T16:28:39.558Z,9.88
2018-03-24T16:31:07.989Z,10.22
2018-03-24T16:33:36.425Z,10.00
2018-03-24T16:36:04.873Z,9.93
2018-03-24T16:38:33.341Z,9.67
2018-03-24T16:41:02.874Z,9.51
2018-03-24T16:43:31.310Z,9.43
2018-03-24T16:46:01.533Z,9.32
2018-03-24T16:48:29.973Z,9.25
2018-03-24T16:50:58.408Z,9.21
2018-03-24T16:53:27.904Z,9.28
2018-03-24T16:55:56.355Z,9.28
2018-03-24T16:58:24.805Z,9.20
2018-03-24T17:00:54.637Z,9.09
2018-03-24T17:03:24.385Z,9.10
2018-03-24T17:05:52.853Z,9.12
2018-03-24T17:08:22.810Z,8.98
2018-03-24T17:10:55.838Z,8.90
2018-03-24T17:13:24.308Z,8.81
2018-03-24T17:15:52.733Z,8.81
2018-03-24T17:18:21.185Z,8.71
2018-03-24T17:20:51.360Z,8.63
2018-03-24T17:23:19.862Z,8.60
2018-03-24T17:25:48.329Z,8.64
2018-03-24T17:28:18.376Z,8.53
2018-03-24T17:30:48.521Z,8.51
2018-03-24T17:33:17.045Z,8.48
2018-03-24T17:35:45.488Z,8.43
2018-03-24T17:38:13.927Z,8.43
2018-03-24T17:40:43.875Z,8.30
2018-03-24T17:43:14.009Z,8.22
2018-03-24T17:45:45.154Z,8.09
2018-03-24T17:48:13.603Z,8.01
2018-03-24T17:50:42.065Z,7.99
2018-03-24T17:53:10.546Z,8.04
2018-03-24T17:55:40.826Z,8.06
2018-03-24T17:58:09.247Z,7.88
2018-03-24T18:00:39.254Z,8.01
2018-03-24T18:03:07.694Z,7.88
2018-03-24T18:05:36.105Z,7.90
2018-03-24T18:08:04.713Z,7.77
2018-03-24T18:10:34.733Z,7.85
2018-03-24T18:13:03.173Z,7.78
2018-03-24T18:15:31.738Z,7.62
2018-03-24T18:18:00.170Z,7.37
2018-03-24T18:20:28.625Z,7.12
2018-03-24T18:22:57.109Z,6.88
2018-03-24T18:25:25.530Z,6.85
2018-03-24T18:27:54.034Z,6.77
2018-03-24T18:30:22.478Z,6.70
2018-03-24T18:32:50.958Z,6.95
2018-03-24T18:35:19.429Z,6.81
2018-03-24T18:37:49.359Z,6.61
2018-03-24T18:40:17.824Z,6.50
2018-03-24T18:42:46.293Z,6.11
2018-03-24T18:45:16.252Z,5.86
2018-03-24T18:47:44.731Z,5.90
2018-03-24T18:50:13.315Z,5.77
2018-03-24T18:52:41.782Z,6.07
2018-03-24T18:55:11.839Z,5.82
2018-03-24T18:57:40.319Z,5.68
2018-03-24T19:00:08.850Z,5.84
2018-03-24T19:02:41.217Z,5.54
2018-03-24T19:05:11.178Z,5.60
2018-03-24T19:07:44.739Z,5.28
2018-03-24T19:10:16.790Z,5.00
2018-03-24T19:12:45.563Z,4.88
2018-03-24T19:15:15.582Z,4.81
2018-03-24T19:17:45.566Z,4.79
2018-03-24T19:20:14.027Z,4.69
2018-03-24T19:22:42.494Z,4.57
2018-03-24T19:25:11.049Z,4.74
2018-03-24T19:27:41.054Z,4.73
2018-03-24T19:30:11.102Z,4.95
2018-03-24T19:32:39.652Z,4.74
2018-03-24T19:35:08.036Z,4.76
2018-03-24T19:37:36.470Z,4.80
2018-03-24T19:40:04.989Z,4.72
2018-03-24T19:42:33.468Z,4.60
2018-03-24T19:45:02.062Z,4.67
2018-03-24T19:47:35.788Z,4.81
2018-03-24T19:50:05.826Z,4.87
2018-03-24T19:52:34.323Z,4.86
2018-03-24T19:55:02.783Z,4.84
2018-03-24T19:57:31.247Z,4.85
2018-03-24T19:59:59.760Z,4.87
2018-03-24T20:02:28.270Z,4.88
2018-03-24T20:04:56.766Z,4.90
2018-03-24T20:07:25.233Z,4.93
2018-03-24T20:09:53.821Z,4.93
2018-03-24T20:12:22.282Z,4.89
2018-03-24T20:14:50.725Z,4.95
2018-03-24T20:17:22.015Z,4.92
2018-03-24T20:19:50.506Z,4.91
2018-03-24T20:22:19.002Z,4.95
2018-03-24T20:24:47.531Z,4.93
2018-03-24T20:27:16.005Z,4.92
2018-03-24T20:29:44.475Z,4.90
2018-03-24T20:32:12.960Z,4.92
2018-03-24T20:34:41.418Z,4.89
2018-03-24T20:37:09.932Z,4.94
2018-03-24T20:39:38.675Z,4.88
2018-03-24T20:42:07.140Z,4.78
2018-03-24T20:44:38.029Z,4.79
2018-03-24T20:47:06.555Z,4.79
2018-03-24T20:49:35.017Z,4.85
2018-03-24T20:52:07.240Z,4.77
2018-03-24T20:54:35.716Z,4.71
2018-03-24T20:57:04.182Z,4.75
2018-03-24T20:59:32.711Z,4.74
2018-03-24T21:02:01.225Z,4.81
2018-03-24T21:04:29.710Z,4.84
2018-03-24T21:06:58.472Z,4.81
2018-03-24T21:09:28.733Z,4.81
2018-03-24T21:11:57.223Z,4.78
2018-03-24T21:14:25.697Z,4.80
2018-03-24T21:16:54.195Z,4.76
2018-03-24T21:19:22.652Z,4.74
2018-03-24T21:21:51.079Z,4.76
2018-03-24T21:24:20.355Z,4.76
2018-03-24T21:26:50.951Z,4.75
2018-03-24T21:29:19.464Z,4.70
2018-03-24T21:31:47.993Z,4.70
2018-03-24T21:34:16.478Z,4.71
2018-03-24T21:36:44.926Z,4.63
2018-03-24T21:39:13.411Z,4.65
2018-03-24T21:41:41.843Z,4.64
2018-03-24T21:44:10.849Z,4.64
2018-03-24T21:46:39.513Z,4.66
2018-03-24T21:49:08.039Z,4.67
2018-03-24T21:51:36.530Z,4.59
2018-03-24T21:54:07.185Z,4.55
2018-03-24T21:56:35.629Z,4.55
2018-03-24T21:59:04.153Z,4.59
2018-03-24T22:01:34.683Z,4.59
2018-03-24T22:04:05.324Z,4.50
2018-03-24T22:06:33.740Z,4.38
2018-03-24T22:09:02.259Z,4.40
2018-03-24T22:11:30.761Z,4.31
2018-03-24T22:13:59.758Z,4.38
2018-03-24T22:16:28.209Z,4.28
2018-03-24T22:18:56.736Z,4.26
2018-03-24T22:21:27.018Z,4.22
2018-03-24T22:23:57.141Z,4.19
2018-03-24T22:26:27.618Z,4.06
2018-03-24T22:28:56.063Z,4.14
2018-03-24T22:31:24.510Z,4.14
2018-03-24T22:33:53.013Z,4.05
2018-03-24T22:36:23.598Z,4.05
2018-03-24T22:38:52.506Z,3.95
2018-03-24T22:41:23.047Z,3.97
2018-03-24T22:43:51.509Z,3.97
2018-03-24T22:46:22.136Z,3.92
2018-03-24T22:48:52.466Z,3.87
2018-03-24T22:51:22.692Z,3.91
2018-03-24T22:53:51.166Z,3.82
2018-03-24T22:56:19.674Z,3.81
2018-03-24T22:58:50.165Z,3.78
2018-03-24T23:01:21.589Z,3.66
2018-03-24T23:03:50.466Z,3.78
2018-03-24T23:06:18.980Z,3.76
2018-03-24T23:08:47.469Z,3.65
2018-03-24T23:11:16.837Z,3.64
2018-03-24T23:13:47.611Z,3.63
2018-03-24T23:16:18.124Z,3.61
2018-03-24T23:18:46.544Z,3.70
2018-03-24T23:21:17.550Z,3.69
2018-03-24T23:23:48.182Z,3.65
2018-03-24T23:26:16.647Z,3.57
2018-03-24T23:28:45.129Z,3.45
2018-03-24T23:31:13.665Z,3.47
2018-03-24T23:33:42.236Z,3.45
2018-03-24T23:36:10.669Z,3.36
2018-03-24T23:38:39.122Z,3.41
2018-03-24T23:41:07.601Z,3.44
2018-03-24T23:43:36.039Z,3.36
2018-03-24T23:46:04.667Z,3.35
2018-03-24T23:48:33.234Z,3.26
2018-03-24T23:51:01.710Z,3.27
2018-03-24T23:53:30.181Z,3.20
2018-03-24T23:55:58.630Z,3.14
2018-03-24T23:58:27.085Z,3.11
